Time;durP1;ratioP1;P1;durP2;ratioP2;P2;SDS_P1;SDS_P2;PMS_P1;PMS_P2;Temp;Humidity;BMP_temperature;BMP_pressure;BME280_temperature;BME280_humidity;BME280_pressure;Samples;Min_cycle;Max_cycle;Signal;HPM_P1;HPM_P2
2022/07/08 00:01:52;;;;;;;10.40;1.80;;;14.60;99.90;;;;;;5065674;28;20040;-41
2022/07/08 00:04:18;;;;;;;10.18;1.77;;;14.70;99.90;;;;;;5069166;28;20419;-41
2022/07/08 00:06:44;;;;;;;7.25;1.58;;;14.60;99.90;;;;;;5056064;28;20112;-41
2022/07/08 00:09:10;;;;;;;8.65;1.42;;;14.60;99.90;;;;;;5082319;28;20120;-41
2022/07/08 00:11:37;;;;;;;8.18;1.60;;;14.60;99.90;;;;;;5071429;28;20040;-41
2022/07/08 00:14:03;;;;;;;8.32;1.42;;;14.60;99.90;;;;;;5070084;28;20051;-41
2022/07/08 00:16:29;;;;;;;9.68;1.15;;;14.60;99.90;;;;;;5075223;28;20408;-42
2022/07/08 00:18:55;;;;;;;5.78;1.10;;;14.60;99.90;;;;;;5088447;28;20189;-41
2022/07/08 00:21:20;;;;;;;5.97;1.02;;;14.60;99.90;;;;;;5075612;28;20120;-41
2022/07/08 00:23:46;;;;;;;7.20;1.45;;;14.60;99.90;;;;;;5064957;28;20049;-41
2022/07/08 00:26:13;;;;;;;7.25;1.40;;;14.60;99.90;;;;;;5057991;28;20055;-42
2022/07/08 00:28:38;;;;;;;5.82;1.08;;;14.50;99.90;;;;;;5071855;28;20082;-41
2022/07/08 00:31:04;;;;;;;10.23;1.33;;;14.50;99.90;;;;;;5091476;28;20048;-41
2022/07/08 00:33:30;;;;;;;9.70;1.35;;;14.50;99.90;;;;;;5089027;28;20055;-41
2022/07/08 00:35:56;;;;;;;12.23;1.55;;;14.50;99.90;;;;;;5075053;28;20040;-41
2022/07/08 00:38:21;;;;;;;8.07;1.25;;;14.50;99.90;;;;;;5055147;28;20040;-41
2022/07/08 00:40:47;;;;;;;8.63;1.15;;;14.50;99.90;;;;;;5070981;28;20083;-41
2022/07/08 00:43:45;;;;;;;7.40;1.48;;;14.50;99.90;;;;;;5069601;28;20040;-41
2022/07/08 00:46:12;;;;;;;13.93;1.67;;;14.40;99.90;;;;;;5062387;28;20048;-41
2022/07/08 00:48:39;;;;;;;6.38;1.48;;;14.40;99.90;;;;;;5063175;28;20849;-41
2022/07/08 00:51:07;;;;;;;6.32;1.30;;;14.40;99.90;;;;;;5088009;28;20136;-41
2022/07/08 00:53:34;;;;;;;7.70;1.20;;;14.50;99.90;;;;;;5090067;28;20040;-42
2022/07/08 00:56:00;;;;;;;9.38;1.33;;;14.40;99.90;;;;;;5090843;28;20044;-41
2022/07/08 00:58:26;;;;;;;7.40;1.23;;;14.40;99.90;;;;;;5074106;28;20052;-41
2022/07/08 01:00:53;;;;;;;7.13;1.60;;;14.30;99.90;;;;;;5090560;28;20050;-41
2022/07/08 01:03:20;;;;;;;9.18;1.25;;;14.30;99.90;;;;;;5089936;28;20104;-41
2022/07/08 01:05:45;;;;;;;13.35;1.48;;;14.30;99.90;;;;;;5090800;28;20090;-42
2022/07/08 01:08:12;;;;;;;6.00;1.33;;;14.30;99.90;;;;;;5074349;28;20399;-41
2022/07/08 01:10:38;;;;;;;7.13;1.30;;;14.30;99.90;;;;;;5075804;28;20128;-41
2022/07/08 01:13:05;;;;;;;9.50;1.33;;;14.20;99.90;;;;;;5075813;28;20129;-41
2022/07/08 01:15:32;;;;;;;9.23;1.30;;;14.20;99.90;;;;;;5077539;28;20686;-41
2022/07/08 01:17:58;;;;;;;7.18;1.23;;;14.20;99.90;;;;;;5074220;28;20110;-41
2022/07/08 01:20:23;;;;;;;7.20;0.98;;;14.20;99.90;;;;;;5089559;28;20044;-41
2022/07/08 01:22:49;;;;;;;5.82;1.27;;;14.10;99.90;;;;;;5089528;28;20413;-41
2022/07/08 01:25:16;;;;;;;8.82;1.10;;;14.10;99.90;;;;;;5061970;28;20117;-41
2022/07/08 01:27:42;;;;;;;8.15;1.33;;;14.10;99.90;;;;;;5054806;28;20040;-41
2022/07/08 01:30:08;;;;;;;9.77;1.45;;;14.10;99.90;;;;;;5089327;28;20040;-41
2022/07/08 01:32:37;;;;;;;7.82;1.27;;;14.00;99.90;;;;;;5089461;28;20967;-41
2022/07/08 01:35:04;;;;;;;11.38;1.60;;;14.00;99.90;;;;;;5090047;28;20582;-41
2022/07/08 01:37:30;;;;;;;10.57;1.33;;;13.90;99.90;;;;;;5074198;28;20113;-42
2022/07/08 01:39:55;;;;;;;7.72;1.27;;;13.90;99.90;;;;;;5090089;28;20521;-41
2022/07/08 01:42:21;;;;;;;10.82;1.20;;;13.90;99.90;;;;;;5072619;28;20052;-41
2022/07/08 01:44:47;;;;;;;7.93;1.10;;;13.80;99.90;;;;;;5069188;28;20043;-41
2022/07/08 01:47:13;;;;;;;8.40;1.08;;;13.70;99.90;;;;;;5053285;28;20040;-42
2022/07/08 01:49:39;;;;;;;7.40;1.30;;;13.70;99.90;;;;;;5056126;28;20040;-42
2022/07/08 01:52:06;;;;;;;9.38;1.38;;;13.60;99.90;;;;;;5068966;28;20075;-42
2022/07/08 01:54:32;;;;;;;8.23;1.38;;;13.60;99.90;;;;;;5068403;28;20509;-41
2022/07/08 01:57:16;;;;;;;7.63;1.05;;;13.50;99.90;;;;;;5054046;28;20649;-41
2022/07/08 01:59:46;;;;;;;10.10;1.48;;;13.50;99.90;;;;;;5068892;28;20045;-41
2022/07/08 02:02:13;;;;;;;11.52;1.50;;;13.50;99.90;;;;;;5068861;28;20036;-41
2022/07/08 02:04:40;;;;;;;8.52;1.52;;;13.40;99.90;;;;;;5080461;28;20042;-41
2022/07/08 02:07:06;;;;;;;10.63;1.38;;;13.40;99.90;;;;;;5073765;28;20117;-42
2022/07/08 02:09:32;;;;;;;6.10;1.08;;;13.40;99.90;;;;;;5089231;28;20072;-41
2022/07/08 02:14:41;;;;;;;9.57;1.40;;;13.30;99.90;;;;;;5069313;28;20421;-41
2022/07/08 02:17:08;;;;;;;13.18;1.35;;;13.30;99.90;;;;;;5073690;28;20036;-41
2022/07/08 02:19:35;;;;;;;7.95;1.52;;;13.20;99.90;;;;;;5089209;28;20083;-41
2022/07/08 02:22:01;;;;;;;7.85;1.60;;;13.30;99.90;;;;;;5089969;28;20040;-41
2022/07/08 02:24:26;;;;;;;5.30;1.33;;;13.20;99.90;;;;;;5067016;28;20178;-41
2022/07/08 02:26:52;;;;;;;5.43;1.20;;;13.20;99.90;;;;;;5053877;28;20135;-41
2022/07/08 02:29:18;;;;;;;8.23;1.60;;;13.10;99.90;;;;;;5081815;28;20456;-42
2022/07/08 02:31:44;;;;;;;9.50;1.80;;;13.10;99.90;;;;;;5072417;28;20052;-42
2022/07/08 02:34:09;;;;;;;8.52;1.88;;;13.10;99.90;;;;;;5072361;28;20048;-42
2022/07/08 02:36:35;;;;;;;8.82;1.35;;;13.10;99.90;;;;;;5059639;28;20101;-41
2022/07/08 02:39:01;;;;;;;8.65;1.50;;;13.00;99.90;;;;;;5071708;28;20040;-42
2022/07/08 02:41:27;;;;;;;6.03;1.40;;;13.00;99.90;;;;;;5073107;28;20045;-41
2022/07/08 02:43:52;;;;;;;8.10;1.80;;;13.00;99.90;;;;;;5072239;28;20052;-42
2022/07/08 02:46:18;;;;;;;6.38;1.83;;;13.00;99.90;;;;;;5077457;28;20067;-42
2022/07/08 02:48:44;;;;;;;14.95;2.08;;;12.90;99.90;;;;;;5065886;28;20055;-42
2022/07/08 02:51:09;;;;;;;6.75;1.55;;;13.00;99.90;;;;;;5073270;28;20129;-41
2022/07/08 02:53:35;;;;;;;7.05;1.63;;;12.90;99.90;;;;;;5072108;28;20048;-42
2022/07/08 02:56:00;;;;;;;9.48;1.88;;;12.90;99.90;;;;;;5072737;28;20537;-42
2022/07/08 02:58:26;;;;;;;8.23;1.70;;;12.90;99.90;;;;;;5056273;28;20059;-42
2022/07/08 03:00:52;;;;;;;8.02;1.58;;;12.90;99.90;;;;;;5065454;28;20052;-42
2022/07/08 03:03:17;;;;;;;8.32;2.25;;;12.80;99.90;;;;;;5085220;28;20086;-41
2022/07/08 03:05:43;;;;;;;6.93;1.75;;;12.80;99.90;;;;;;5092600;28;20047;-42
2022/07/08 03:08:09;;;;;;;11.38;2.00;;;12.80;99.90;;;;;;5076555;28;20047;-42
2022/07/08 03:10:34;;;;;;;10.25;1.55;;;12.80;99.90;;;;;;5093027;28;20086;-42
2022/07/08 03:13:00;;;;;;;10.73;1.73;;;12.70;99.90;;;;;;5092343;28;20118;-42
2022/07/08 03:15:26;;;;;;;11.57;1.83;;;12.70;99.90;;;;;;5098122;28;20052;-41
2022/07/08 03:17:52;;;;;;;12.68;1.85;;;12.70;99.90;;;;;;5056177;28;20071;-42
2022/07/08 03:20:18;;;;;;;9.23;1.88;;;12.60;99.90;;;;;;5072471;28;20490;-42
2022/07/08 03:22:45;;;;;;;9.32;1.70;;;12.60;99.90;;;;;;5072042;28;20337;-42
2022/07/08 03:25:11;;;;;;;9.15;1.85;;;12.50;99.90;;;;;;5067433;28;20127;-42
2022/07/08 03:27:36;;;;;;;9.15;1.98;;;12.60;99.90;;;;;;5056879;28;20452;-42
2022/07/08 03:30:04;;;;;;;6.18;1.50;;;12.50;99.90;;;;;;5092689;28;20040;-42
2022/07/08 03:32:29;;;;;;;9.68;1.67;;;12.50;99.90;;;;;;5077042;28;20668;-42
2022/07/08 03:34:55;;;;;;;6.72;2.05;;;12.50;99.90;;;;;;5072497;28;20056;-41
2022/07/08 03:37:21;;;;;;;9.07;1.88;;;12.50;99.90;;;;;;5056766;28;20599;-43
2022/07/08 03:39:46;;;;;;;8.18;1.83;;;12.40;99.90;;;;;;5071743;28;20048;-42
2022/07/08 03:42:12;;;;;;;12.57;2.13;;;12.40;99.90;;;;;;5069613;28;20044;-42
2022/07/08 03:44:38;;;;;;;13.48;2.50;;;12.40;99.90;;;;;;5071787;28;20028;-42
2022/07/08 03:47:04;;;;;;;9.48;2.10;;;12.40;99.90;;;;;;5055773;28;20097;-42
2022/07/08 03:49:29;;;;;;;8.40;1.60;;;12.40;99.90;;;;;;5071893;28;20041;-42
2022/07/08 03:51:55;;;;;;;10.70;2.00;;;12.30;99.90;;;;;;5071734;28;20514;-41
2022/07/08 03:54:21;;;;;;;10.30;1.80;;;12.30;99.90;;;;;;5076856;28;20051;-42
2022/07/08 03:56:46;;;;;;;8.90;1.65;;;12.40;99.90;;;;;;5076367;28;20039;-42
2022/07/08 03:59:12;;;;;;;9.60;1.90;;;12.40;99.90;;;;;;5077680;28;20045;-42
2022/07/08 04:01:38;;;;;;;10.70;2.13;;;12.40;99.90;;;;;;5077999;28;20147;-42
2022/07/08 04:04:03;;;;;;;10.27;1.85;;;12.30;99.90;;;;;;5083694;28;20491;-42
2022/07/08 04:06:29;;;;;;;10.98;2.20;;;12.40;99.90;;;;;;5059786;28;20996;-42
2022/07/08 04:08:55;;;;;;;9.60;1.85;;;12.40;99.90;;;;;;5068155;28;20080;-42
2022/07/08 04:11:20;;;;;;;10.63;1.88;;;12.40;99.90;;;;;;5071770;28;20052;-42
2022/07/08 04:13:46;;;;;;;9.70;2.00;;;12.40;99.90;;;;;;5070577;28;20069;-42
2022/07/08 04:16:13;;;;;;;14.48;2.17;;;12.40;99.90;;;;;;5071212;28;20036;-42
2022/07/08 04:18:39;;;;;;;13.98;1.80;;;12.50;99.90;;;;;;5074638;28;20052;-42
2022/07/08 04:21:06;;;;;;;9.18;1.85;;;12.50;99.90;;;;;;5078345;28;20102;-42
2022/07/08 04:23:32;;;;;;;12.25;1.90;;;12.50;99.90;;;;;;5078140;28;20049;-42
2022/07/08 04:25:58;;;;;;;10.57;1.98;;;12.50;99.90;;;;;;5082612;28;20029;-42
2022/07/08 04:28:24;;;;;;;11.35;1.92;;;12.60;99.90;;;;;;5060054;28;20094;-43
2022/07/08 04:30:50;;;;;;;11.50;2.00;;;12.70;99.90;;;;;;5079421;28;20036;-41
2022/07/08 04:33:15;;;;;;;12.60;2.25;;;12.70;99.90;;;;;;5070390;28;20049;-42
2022/07/08 04:35:41;;;;;;;13.85;1.90;;;12.70;99.90;;;;;;5085330;28;20044;-41
2022/07/08 04:38:07;;;;;;;12.40;2.10;;;12.80;99.90;;;;;;5074148;28;20044;-41
2022/07/08 04:40:33;;;;;;;7.28;1.92;;;12.80;99.90;;;;;;5091328;28;20044;-42
2022/07/08 04:42:58;;;;;;;11.05;2.00;;;12.90;99.90;;;;;;5079431;28;20058;-41
2022/07/08 04:45:24;;;;;;;14.10;2.28;;;12.90;99.90;;;;;;5076266;28;20192;-42
2022/07/08 04:47:50;;;;;;;14.43;2.10;;;13.00;99.90;;;;;;5054491;28;20109;-42
2022/07/08 04:50:16;;;;;;;12.85;2.33;;;13.10;99.90;;;;;;5083063;28;20056;-42
2022/07/08 04:52:42;;;;;;;12.35;1.98;;;13.10;99.90;;;;;;5089664;28;20109;-42
2022/07/08 04:55:08;;;;;;;9.20;2.00;;;13.20;99.90;;;;;;5091158;28;20471;-42
2022/07/08 04:57:34;;;;;;;13.07;2.15;;;13.20;99.90;;;;;;5074175;28;20052;-42
2022/07/08 05:00:00;;;;;;;8.07;2.03;;;13.30;99.90;;;;;;5090974;28;20086;-42
2022/07/08 05:02:29;;;;;;;11.65;2.25;;;13.30;99.90;;;;;;5085242;28;20055;-42
2022/07/08 05:04:55;;;;;;;11.00;2.13;;;13.40;99.90;;;;;;5070465;28;20110;-42
2022/07/08 05:07:21;;;;;;;8.05;1.98;;;13.50;99.90;;;;;;5053793;28;20044;-42
2022/07/08 05:09:46;;;;;;;8.88;2.22;;;13.50;99.90;;;;;;5070576;28;20044;-42
2022/07/08 05:12:12;;;;;;;11.60;1.92;;;13.60;99.90;;;;;;5069301;28;20044;-42
2022/07/08 05:14:38;;;;;;;9.15;2.40;;;13.70;99.90;;;;;;5070307;28;20048;-41
2022/07/08 05:17:03;;;;;;;13.30;2.60;;;13.90;99.90;;;;;;5048113;28;20054;-43
2022/07/08 05:19:29;;;;;;;12.27;1.98;;;14.00;99.90;;;;;;5090635;28;20059;-41
2022/07/08 05:21:55;;;;;;;12.15;2.35;;;14.10;99.90;;;;;;5084078;28;20056;-42
2022/07/08 05:24:20;;;;;;;11.32;2.30;;;14.20;99.90;;;;;;5068188;28;20503;-42
2022/07/08 05:26:46;;;;;;;10.25;2.33;;;14.30;99.90;;;;;;5053678;28;20044;-42
2022/07/08 05:29:11;;;;;;;9.02;2.47;;;14.40;99.90;;;;;;5068253;28;20081;-41
2022/07/08 05:31:37;;;;;;;12.68;2.55;;;14.50;99.90;;;;;;5070531;28;20039;-41
2022/07/08 05:34:03;;;;;;;8.27;2.28;;;14.50;99.90;;;;;;5079270;28;20048;-42
2022/07/08 05:36:29;;;;;;;11.20;2.08;;;14.60;99.90;;;;;;5059398;28;20395;-42
2022/07/08 05:38:55;;;;;;;7.88;2.10;;;14.70;99.90;;;;;;5069145;28;20080;-41
2022/07/08 05:41:21;;;;;;;11.00;2.13;;;14.70;99.90;;;;;;5057320;28;20080;-42
2022/07/08 05:43:47;;;;;;;11.05;2.05;;;14.80;99.90;;;;;;5067761;28;20055;-42
2022/07/08 05:46:12;;;;;;;11.25;2.13;;;14.90;99.90;;;;;;5059634;28;20120;-42
2022/07/08 05:48:38;;;;;;;8.52;2.22;;;14.90;99.90;;;;;;5074588;28;20667;-42
2022/07/08 05:51:04;;;;;;;18.42;2.22;;;15.00;99.90;;;;;;5071265;28;20089;-42
2022/07/08 05:53:30;;;;;;;10.13;1.95;;;15.10;99.90;;;;;;5069174;28;20182;-42
2022/07/08 05:55:56;;;;;;;9.35;2.05;;;15.10;99.90;;;;;;5073665;28;20503;-42
2022/07/08 05:58:21;;;;;;;15.27;2.58;;;15.20;99.90;;;;;;5073076;28;20669;-42
2022/07/08 06:00:47;;;;;;;12.48;2.33;;;15.20;99.90;;;;;;5068055;28;20487;-42
2022/07/08 06:03:13;;;;;;;10.52;2.20;;;15.30;99.90;;;;;;5064745;28;20121;-42
2022/07/08 06:05:39;;;;;;;8.98;2.00;;;15.40;99.90;;;;;;5064865;28;20048;-42
2022/07/08 06:08:05;;;;;;;10.68;2.15;;;15.40;99.90;;;;;;5050507;28;20048;-42
2022/07/08 06:10:31;;;;;;;13.35;1.83;;;15.40;99.90;;;;;;5065199;28;20052;-42
2022/07/08 06:12:57;;;;;;;8.32;2.20;;;15.50;99.90;;;;;;5068398;28;20044;-42
2022/07/08 06:15:22;;;;;;;9.25;2.17;;;15.50;99.90;;;;;;5079345;28;20473;-41
2022/07/08 06:17:48;;;;;;;14.80;2.20;;;15.60;99.90;;;;;;5053476;28;20124;-41
2022/07/08 06:20:14;;;;;;;14.68;2.03;;;15.60;99.90;;;;;;5069424;28;20810;-41
2022/07/08 06:22:43;;;;;;;9.77;1.92;;;15.70;99.90;;;;;;5081859;28;20059;-41
2022/07/08 06:25:09;;;;;;;12.82;2.50;;;15.70;99.90;;;;;;5063003;28;20048;-41
2022/07/08 06:27:35;;;;;;;10.63;2.15;;;15.80;99.90;;;;;;5053167;28;20090;-41
2022/07/08 06:30:01;;;;;;;13.90;2.08;;;15.90;99.90;;;;;;5089475;28;20059;-41
2022/07/08 06:32:27;;;;;;;8.75;2.03;;;15.90;99.90;;;;;;5088595;28;20048;-41
2022/07/08 06:34:53;;;;;;;16.08;2.10;;;16.00;99.90;;;;;;5064362;28;20661;-42
2022/07/08 06:37:19;;;;;;;9.38;1.80;;;16.00;99.90;;;;;;5053653;28;20040;-41
2022/07/08 06:39:44;;;;;;;10.05;2.00;;;16.20;99.90;;;;;;5068295;28;20388;-41
2022/07/08 06:42:10;;;;;;;10.52;1.95;;;16.20;99.90;;;;;;5068418;28;20040;-41
2022/07/08 06:44:36;;;;;;;9.88;1.63;;;16.30;99.90;;;;;;5065957;28;20548;-41
2022/07/08 06:47:01;;;;;;;11.90;1.88;;;16.30;99.90;;;;;;5046200;28;20454;-41
2022/07/08 06:49:27;;;;;;;9.23;1.90;;;16.40;99.90;;;;;;5052327;28;20148;-42
2022/07/08 06:51:52;;;;;;;7.15;1.98;;;16.50;99.90;;;;;;5066059;28;20172;-42
2022/07/08 06:54:37;;;;;;;7.28;1.58;;;16.60;99.90;;;;;;5062919;28;20135;-42
2022/07/08 06:57:04;;;;;;;9.30;1.63;;;16.70;99.90;;;;;;5041403;28;20045;-41
2022/07/08 06:59:30;;;;;;;10.05;2.08;;;16.80;99.90;;;;;;5052956;28;20079;-41
2022/07/08 07:01:56;;;;;;;6.32;1.60;;;16.80;99.90;;;;;;5046535;28;20491;-41
2022/07/08 07:04:21;;;;;;;10.07;1.80;;;16.90;99.90;;;;;;5047502;28;20580;-42
2022/07/08 07:06:47;;;;;;;10.15;1.73;;;16.90;99.90;;;;;;5033672;28;20051;-41
2022/07/08 07:09:13;;;;;;;8.85;1.70;;;17.00;99.90;;;;;;5045442;28;20047;-41
2022/07/08 07:11:39;;;;;;;12.60;2.05;;;17.10;99.90;;;;;;5043721;28;20105;-42
2022/07/08 07:14:06;;;;;;;7.57;1.90;;;17.20;99.90;;;;;;5041532;28;20109;-41
2022/07/08 07:16:32;;;;;;;13.15;2.05;;;17.20;99.90;;;;;;5031957;28;20580;-41
2022/07/08 07:18:58;;;;;;;13.98;2.22;;;17.30;99.90;;;;;;5046754;28;20052;-41
2022/07/08 07:21:24;;;;;;;10.02;1.65;;;17.30;99.90;;;;;;5048210;28;20106;-42
2022/07/08 07:23:49;;;;;;;10.10;1.63;;;17.40;99.90;;;;;;5045037;28;20052;-42
2022/07/08 07:26:15;;;;;;;10.98;1.88;;;17.40;99.90;;;;;;5048303;28;20059;-42
2022/07/08 07:28:41;;;;;;;10.45;2.08;;;17.50;99.90;;;;;;5053678;28;20143;-41
2022/07/08 07:31:07;;;;;;;5.88;1.60;;;17.50;99.90;;;;;;5057903;28;20059;-42
2022/07/08 07:33:32;;;;;;;5.45;1.40;;;17.60;99.90;;;;;;5058060;28;20047;-41
2022/07/08 07:35:59;;;;;;;8.10;1.70;;;17.60;99.90;;;;;;5061053;28;20423;-41
2022/07/08 07:38:24;;;;;;;9.00;1.48;;;17.60;99.90;;;;;;5043987;28;20511;-41
2022/07/08 07:40:50;;;;;;;7.40;1.63;;;17.70;99.90;;;;;;5056150;28;20059;-42
2022/07/08 07:43:16;;;;;;;9.95;1.85;;;17.70;99.90;;;;;;5056488;28;20059;-41
2022/07/08 07:45:42;;;;;;;9.35;1.60;;;17.70;99.90;;;;;;5076261;28;20076;-41
2022/07/08 07:48:08;;;;;;;8.32;1.80;;;17.80;99.90;;;;;;5040432;28;20045;-41
2022/07/08 07:50:34;;;;;;;12.60;2.00;;;17.80;99.90;;;;;;5054025;28;20048;-41
2022/07/08 07:52:59;;;;;;;7.00;1.60;;;17.90;99.90;;;;;;5049574;28;20139;-41
2022/07/08 07:55:25;;;;;;;6.53;1.73;;;17.90;99.90;;;;;;5045889;28;20131;-41
2022/07/08 07:57:51;;;;;;;9.18;1.90;;;18.00;99.90;;;;;;5036196;28;20060;-41
2022/07/08 08:00:17;;;;;;;7.70;1.55;;;18.00;99.90;;;;;;5050939;28;20056;-41
2022/07/08 08:02:43;;;;;;;6.75;1.85;;;18.10;99.90;;;;;;5028926;28;20049;-42
2022/07/08 08:05:10;;;;;;;8.93;1.55;;;18.20;99.90;;;;;;5042298;28;20044;-41
2022/07/08 08:07:40;;;;;;;7.60;1.70;;;18.10;99.90;;;;;;5021971;28;21500;-41
2022/07/08 08:10:07;;;;;;;9.77;1.40;;;18.20;99.90;;;;;;5049833;28;20078;-41
2022/07/08 08:12:33;;;;;;;10.60;2.00;;;18.20;99.90;;;;;;5046870;28;20040;-41
2022/07/08 08:14:59;;;;;;;8.07;1.55;;;18.30;99.90;;;;;;5052117;28;20101;-42
2022/07/08 08:17:24;;;;;;;7.28;1.60;;;18.30;99.90;;;;;;5035461;28;20127;-41
2022/07/08 08:19:50;;;;;;;13.05;1.83;;;18.30;99.90;;;;;;5052124;28;20048;-42
2022/07/08 08:22:16;;;;;;;6.80;1.83;;;18.40;99.90;;;;;;5050363;28;20638;-41
2022/07/08 08:24:42;;;;;;;9.13;1.70;;;18.30;99.90;;;;;;5052487;28;20049;-41
2022/07/08 08:27:09;;;;;;;7.07;1.17;;;18.40;99.90;;;;;;5036524;28;20076;-42
2022/07/08 08:29:34;;;;;;;4.70;1.33;;;18.40;99.90;;;;;;5052551;28;20099;-41
2022/07/08 08:32:00;;;;;;;5.70;1.35;;;18.40;99.90;;;;;;5050187;28;20060;-41
2022/07/08 08:34:26;;;;;;;4.25;1.23;;;18.40;99.90;;;;;;5051433;28;20101;-42
2022/07/08 08:36:52;;;;;;;7.90;1.70;;;18.50;99.90;;;;;;5036543;28;20041;-42
2022/07/08 08:39:18;;;;;;;7.40;1.23;;;18.50;99.90;;;;;;5051224;28;20101;-41
2022/07/08 08:41:44;;;;;;;12.50;1.88;;;18.50;99.90;;;;;;5027140;28;20863;-41
2022/07/08 08:44:10;;;;;;;5.75;1.60;;;18.50;99.90;;;;;;5051436;28;20056;-41
2022/07/08 08:46:36;;;;;;;9.73;1.92;;;18.50;99.90;;;;;;5037416;28;20083;-42
2022/07/08 08:49:02;;;;;;;8.73;1.42;;;18.60;99.90;;;;;;5046443;28;20109;-41
2022/07/08 08:51:34;;;;;;;5.85;1.50;;;18.50;99.90;;;;;;5050572;28;20056;-41
2022/07/08 08:54:04;;;;;;;7.03;1.40;;;18.50;99.90;;;;;;5047104;28;20044;-41
2022/07/08 08:56:30;;;;;;;7.25;1.50;;;18.60;99.90;;;;;;5038969;28;20097;-41
2022/07/08 08:58:58;;;;;;;10.07;1.77;;;18.60;99.90;;;;;;5046943;28;20118;-41
2022/07/08 09:01:24;;;;;;;4.07;1.20;;;18.60;99.90;;;;;;5049889;28;20841;-41
2022/07/08 09:03:50;;;;;;;6.88;1.45;;;18.70;99.90;;;;;;5050743;28;20049;-41
2022/07/08 09:06:15;;;;;;;7.97;1.98;;;18.70;99.90;;;;;;5040219;28;20056;-42
2022/07/08 09:08:41;;;;;;;4.93;1.50;;;18.70;99.90;;;;;;5044976;28;20058;-41
2022/07/08 09:11:07;;;;;;;5.50;1.42;;;18.80;99.90;;;;;;5050477;28;20475;-42
2022/07/08 09:13:33;;;;;;;5.38;1.27;;;18.80;99.90;;;;;;5047841;28;20135;-41
2022/07/08 09:15:59;;;;;;;6.25;1.30;;;18.90;99.90;;;;;;5049061;28;20119;-41
2022/07/08 09:18:30;;;;;;;4.25;1.10;;;18.90;99.90;;;;;;5032407;28;20412;-41
2022/07/08 09:20:57;;;;;;;6.78;1.20;;;18.90;99.90;;;;;;5048629;28;20411;-41
2022/07/08 09:23:32;;;;;;;4.55;1.30;;;18.90;99.90;;;;;;5047421;28;20107;-42
2022/07/08 09:26:04;;;;;;;5.75;1.20;;;18.90;99.90;;;;;;5048732;28;20060;-42
2022/07/08 09:28:31;;;;;;;5.57;1.10;;;18.90;99.90;;;;;;5035474;28;20048;-42
2022/07/08 09:30:59;;;;;;;9.65;1.30;;;18.90;99.90;;;;;;5051279;28;20045;-41
2022/07/08 09:33:27;;;;;;;5.82;1.25;;;18.90;99.90;;;;;;5048264;28;20608;-41
2022/07/08 09:35:54;;;;;;;5.20;1.10;;;19.00;99.90;;;;;;5052180;28;20491;-42
2022/07/08 09:38:21;;;;;;;4.68;1.00;;;19.00;99.90;;;;;;5033258;28;20056;-41
2022/07/08 09:41:17;;;;;;;4.78;1.08;;;19.10;99.90;;;;;;5050592;28;20133;-41
2022/07/08 09:43:56;;;;;;;6.30;1.20;;;19.10;99.90;;;;;;5042536;28;20044;-41
2022/07/08 09:46:21;;;;;;;5.07;1.27;;;19.10;99.90;;;;;;5037781;28;20128;-42
2022/07/08 09:48:47;;;;;;;7.57;1.35;;;19.20;99.90;;;;;;5047095;28;20131;-41
2022/07/08 09:51:16;;;;;;;6.25;1.58;;;19.30;99.90;;;;;;5051706;28;20072;-41
2022/07/08 09:53:43;;;;;;;8.80;1.45;;;19.30;99.90;;;;;;5048651;28;20057;-42
2022/07/08 09:56:10;;;;;;;9.55;1.70;;;19.40;99.90;;;;;;5044047;28;20044;-41
2022/07/08 09:58:36;;;;;;;9.30;1.60;;;19.40;99.90;;;;;;5041454;28;20163;-41
2022/07/08 10:01:04;;;;;;;9.35;1.63;;;19.50;99.90;;;;;;5049919;28;20562;-41
2022/07/08 10:03:30;;;;;;;6.97;1.42;;;19.50;99.90;;;;;;5047735;28;20047;-41
2022/07/08 10:05:55;;;;;;;7.47;1.48;;;19.60;99.90;;;;;;5049653;28;20041;-41
2022/07/08 10:08:23;;;;;;;7.32;1.45;;;19.70;99.90;;;;;;5048661;28;20036;-41
2022/07/08 10:10:49;;;;;;;4.50;1.30;;;19.70;99.90;;;;;;5050083;28;20060;-41
2022/07/08 10:13:16;;;;;;;6.63;1.58;;;19.70;99.90;;;;;;5048631;28;20504;-41
2022/07/08 10:15:43;;;;;;;6.40;1.30;;;19.70;99.90;;;;;;5049179;28;20056;-41
2022/07/08 10:18:17;;;;;;;7.60;1.45;;;19.70;99.90;;;;;;5030589;28;20412;-41
2022/07/08 10:20:49;;;;;;;4.93;1.48;;;19.70;99.90;;;;;;5052563;28;20059;-41
2022/07/08 10:23:22;;;;;;;3.75;1.58;;;19.80;99.90;;;;;;5049242;28;20056;-41
2022/07/08 10:25:50;;;;;;;7.03;1.45;;;19.70;99.90;;;;;;5050299;28;20072;-42
2022/07/08 10:28:15;;;;;;;6.93;1.55;;;19.80;99.90;;;;;;5030115;28;20060;-42
2022/07/08 10:30:49;;;;;;;4.20;1.42;;;19.90;99.90;;;;;;5049688;28;20192;-41
2022/07/08 10:33:26;;;;;;;7.65;1.73;;;20.00;99.90;;;;;;5048492;28;20143;-42
2022/07/08 10:36:08;;;;;;;7.90;1.45;;;20.00;99.90;;;;;;5049678;28;20036;-42
2022/07/08 10:38:39;;;;;;;6.05;1.13;;;20.10;99.90;;;;;;5038939;28;20183;-41
2022/07/08 10:41:09;;;;;;;;;;;20.20;99.90;;;;;;5049401;28;20063;-41
2022/07/08 10:43:36;;;;;;;6.72;1.45;;;20.20;99.90;;;;;;5047919;28;20411;-41
2022/07/08 10:46:12;;;;;;;8.35;1.38;;;20.20;99.90;;;;;;5047134;28;20415;-41
2022/07/08 10:48:41;;;;;;;6.75;1.60;;;20.30;99.90;;;;;;5041231;28;20505;-42
2022/07/08 10:51:25;;;;;;;4.03;1.25;;;20.30;99.90;;;;;;5046820;28;20049;-41
2022/07/08 10:53:51;;;;;;;5.97;1.63;;;20.30;99.90;;;;;;5052533;28;20047;-41
2022/07/08 10:56:50;;;;;;;6.57;1.58;;;20.30;99.90;;;;;;5041889;28;20163;-42
2022/07/08 10:59:19;;;;;;;8.52;1.65;;;20.40;99.90;;;;;;5052157;28;20068;-41
2022/07/08 11:01:50;;;;;;;7.50;1.48;;;20.40;99.90;;;;;;5052155;28;20080;-42
2022/07/08 11:04:34;;;;;;;6.63;1.23;;;20.40;99.90;;;;;;5051702;28;20075;-42
2022/07/08 11:09:48;;;;;;;6.97;1.40;;;20.60;99.90;;;;;;5050569;28;20056;-41
2022/07/08 11:12:39;;;;;;;6.25;1.80;;;20.60;99.90;;;;;;5052212;28;20061;-41
2022/07/08 11:15:17;;;;;;;6.43;1.60;;;20.70;99.90;;;;;;5054135;28;20830;-41
2022/07/08 11:17:46;;;;;;;7.85;1.40;;;20.80;99.90;;;;;;5035641;28;20063;-41
2022/07/08 11:20:16;;;;;;;5.15;1.55;;;20.80;99.90;;;;;;5052707;28;20052;-41
2022/07/08 11:22:46;;;;;;;9.05;1.67;;;20.90;99.90;;;;;;5051823;28;20988;-42
2022/07/08 11:25:14;;;;;;;4.47;1.73;;;21.00;99.90;;;;;;5053202;28;20099;-41
2022/07/08 11:27:40;;;;;;;8.85;1.80;;;21.00;99.90;;;;;;5037423;28;20053;-41
2022/07/08 11:30:14;;;;;;;7.60;2.00;;;20.90;99.90;;;;;;5054604;28;20123;-41
2022/07/08 11:32:41;;;;;;;8.35;1.77;;;20.90;99.90;;;;;;5052960;28;21075;-41
2022/07/08 11:35:08;;;;;;;4.97;1.77;;;21.00;99.90;;;;;;5053690;28;20559;-41
2022/07/08 11:37:44;;;;;;;8.07;1.90;;;21.00;99.90;;;;;;5035090;28;20067;-42
2022/07/08 11:40:16;;;;;;;7.07;1.90;;;21.10;99.90;;;;;;5052174;28;20052;-41
2022/07/08 11:42:42;;;;;;;8.90;1.90;;;21.20;99.90;;;;;;5047995;28;20063;-41
2022/07/08 11:45:10;;;;;;;7.22;2.00;;;21.20;99.90;;;;;;5052619;28;20388;-41
2022/07/08 11:47:36;;;;;;;9.25;1.75;;;21.20;99.90;;;;;;5037302;28;20071;-41
2022/07/08 11:50:04;;;;;;;6.97;1.70;;;21.30;99.90;;;;;;5052799;28;20504;-41
2022/07/08 11:52:30;;;;;;;8.23;2.00;;;21.30;99.90;;;;;;5049313;28;20491;-42
2022/07/08 11:54:59;;;;;;;8.48;2.28;;;21.30;99.90;;;;;;5053260;28;20113;-42
2022/07/08 11:57:25;;;;;;;5.97;1.90;;;21.30;99.90;;;;;;5034945;28;20051;-42
2022/07/08 11:59:51;;;;;;;9.07;2.17;;;21.40;99.90;;;;;;5053660;28;20070;-41
2022/07/08 12:02:24;;;;;;;6.95;2.20;;;21.50;99.90;;;;;;5051216;28;20045;-42
2022/07/08 12:04:51;;;;;;;5.97;1.70;;;21.50;99.90;;;;;;5050658;28;20036;-42
2022/07/08 12:07:27;;;;;;;9.63;2.20;;;21.60;99.90;;;;;;5034871;28;20053;-42
2022/07/08 12:09:57;;;;;;;6.13;1.90;;;21.60;99.90;;;;;;5052360;28;20411;-41
2022/07/08 12:12:27;;;;;;;7.05;2.13;;;21.60;99.90;;;;;;5051223;28;20101;-41
2022/07/08 12:14:54;;;;;;;6.82;2.35;;;21.80;99.90;;;;;;5052618;28;20051;-42
2022/07/08 12:17:29;;;;;;;8.60;2.60;;;21.60;99.90;;;;;;5035971;28;20059;-42
2022/07/08 12:19:56;;;;;;;11.68;2.53;;;21.60;99.90;;;;;;5048600;28;20056;-41
2022/07/08 12:22:44;;;;;;;7.50;2.17;;;21.60;99.90;;;;;;5050369;28;20124;-41
2022/07/08 12:25:11;;;;;;;8.35;1.92;;;21.60;99.90;;;;;;5051199;28;20057;-42
2022/07/08 12:27:37;;;;;;;7.55;2.08;;;21.60;99.90;;;;;;5034525;28;20605;-42
2022/07/08 12:30:05;;;;;;;6.43;2.30;;;21.60;99.90;;;;;;5051526;28;20044;-42
2022/07/08 12:32:38;;;;;;;10.48;2.55;;;21.70;99.90;;;;;;5050283;28;20049;-41
2022/07/08 12:35:05;;;;;;;12.80;2.45;;;21.70;99.90;;;;;;5050508;28;21535;-41
2022/07/08 12:37:31;;;;;;;6.55;2.08;;;21.80;99.90;;;;;;5030598;28;20059;-42
2022/07/08 12:39:57;;;;;;;8.38;1.85;;;21.90;99.90;;;;;;5050769;28;20048;-42
2022/07/08 12:42:26;;;;;;;7.75;2.00;;;22.00;99.90;;;;;;5050495;28;20045;-41
2022/07/08 12:44:52;;;;;;;6.13;1.85;;;22.10;99.90;;;;;;5051380;28;20044;-42
2022/07/08 12:47:18;;;;;;;8.50;2.15;;;22.10;99.90;;;;;;5034134;28;20056;-42
2022/07/08 12:49:46;;;;;;;9.43;2.47;;;22.20;99.90;;;;;;5046894;28;20080;-42